Time;durP1;ratioP1;P1;durP2;ratioP2;P2;SDS_P1;SDS_P2;PMS_P1;PMS_P2;Temp;Humidity;BMP_temperature;BMP_pressure;BME280_temperature;BME280_humidity;BME280_pressure;Samples;Min_cycle;Max_cycle;Signal;HPM_P1;HPM_P2
2022/03/05 00:02:10;;;;;;;;;;;;;;;4.69;47.34;101598.53;5043401;28;19921;-78
2022/03/05 00:04:35;;;;;;;;;;;;;;;4.71;47.33;101602.00;5031734;28;19943;-78
2022/03/05 00:07:00;;;;;;;;;;;;;;;5.09;47.35;101600.88;5043768;28;20604;-78
2022/03/05 00:09:26;;;;;;;;;;;;;;;4.97;47.78;101597.25;5029181;28;19921;-78
2022/03/05 00:11:51;;;;;;;;;;;;;;;5.16;47.10;101594.09;5031935;28;19931;-78
2022/03/05 00:14:16;;;;;;;;;;;;;;;5.14;46.73;101604.41;5042175;28;19921;-78
2022/03/05 00:16:42;;;;;;;;;;;;;;;5.02;47.35;101599.06;5025698;28;19921;-77
2022/03/05 00:19:07;;;;;;;;;;;;;;;5.17;46.67;101604.44;5024642;28;19921;-78
2022/03/05 00:21:33;;;;;;;;;;;;;;;4.94;47.38;101600.63;5023592;28;20313;-77
2022/03/05 00:23:58;;;;;;;;;;;;;;;5.07;47.22;101609.41;5026938;28;19924;-77
2022/03/05 00:26:25;;;;;;;;;;;;;;;4.89;47.61;101603.16;5026419;28;20976;-77
2022/03/05 00:28:51;;;;;;;;;;;;;;;5.02;47.12;101600.75;5019892;28;20314;-77
2022/03/05 00:31:17;;;;;;;;;;;;;;;5.04;47.09;101597.38;5027675;28;19925;-77
2022/03/05 00:33:42;;;;;;;;;;;;;;;5.05;47.77;101605.97;5026575;28;20039;-78
2022/03/05 00:36:07;;;;;;;;;;;;;;;4.93;47.44;101609.22;5029906;28;20385;-78
2022/03/05 00:38:33;;;;;;;;;;;;;;;4.96;47.76;101604.13;5026935;28;19925;-78
2022/03/05 00:40:58;;;;;;;;;;;;;;;4.87;48.09;101602.28;5026075;28;19925;-78
2022/03/05 00:43:23;;;;;;;;;;;;;;;4.91;47.77;101598.88;5023087;28;19920;-78
2022/03/05 00:45:49;;;;;;;;;;;;;;;4.82;48.00;101605.63;5026676;28;20417;-78
2022/03/05 00:48:14;;;;;;;;;;;;;;;4.93;48.01;101604.06;5019094;28;19925;-78
2022/03/05 00:50:39;;;;;;;;;;;;;;;5.13;47.29;101606.94;5026983;28;19951;-78
2022/03/05 00:53:05;;;;;;;;;;;;;;;4.91;48.17;101611.75;5026275;28;19931;-78
2022/03/05 00:55:30;;;;;;;;;;;;;;;4.74;47.72;101599.47;5030747;28;19921;-78
2022/03/05 00:57:56;;;;;;;;;;;;;;;4.88;47.88;101603.97;5028593;28;19925;-78
2022/03/05 01:00:21;;;;;;;;;;;;;;;4.93;47.23;101608.34;5026910;28;19928;-78
2022/03/05 01:02:46;;;;;;;;;;;;;;;4.70;47.86;101608.00;5028174;28;19936;-78
2022/03/05 01:05:12;;;;;;;;;;;;;;;4.78;48.20;101611.56;5027088;28;20459;-78
2022/03/05 01:07:38;;;;;;;;;;;;;;;4.87;48.14;101611.69;5028576;28;20003;-78
2022/03/05 01:10:05;;;;;;;;;;;;;;;4.88;47.88;101610.88;5028081;28;20316;-79
2022/03/05 01:12:30;;;;;;;;;;;;;;;4.78;48.03;101607.28;5031306;28;19930;-79
2022/03/05 01:14:56;;;;;;;;;;;;;;;4.50;48.26;101607.66;5041405;28;19925;-79
2022/03/05 01:17:21;;;;;;;;;;;;;;;4.72;48.16;101603.72;5025674;28;19945;-79
2022/03/05 01:19:47;;;;;;;;;;;;;;;4.72;47.88;101604.59;5022154;28;19966;-79
2022/03/05 01:22:12;;;;;;;;;;;;;;;4.81;47.67;101597.03;5026563;28;20012;-78
2022/03/05 01:24:37;;;;;;;;;;;;;;;4.81;47.74;101591.88;5023329;28;19985;-78
2022/03/05 01:27:03;;;;;;;;;;;;;;;4.71;47.88;101590.00;5028383;28;19925;-78
2022/03/05 01:29:28;;;;;;;;;;;;;;;4.86;47.68;101594.50;5039389;28;20003;-78
2022/03/05 01:31:54;;;;;;;;;;;;;;;4.64;48.00;101589.88;5027695;28;20035;-78
2022/03/05 01:34:19;;;;;;;;;;;;;;;4.79;48.40;101582.41;5049418;28;19918;-78
2022/03/05 01:36:45;;;;;;;;;;;;;;;4.80;47.52;101585.00;5034384;28;20487;-78
2022/03/05 01:39:10;;;;;;;;;;;;;;;4.73;47.87;101577.16;5047646;28;20299;-78
2022/03/05 01:41:37;;;;;;;;;;;;;;;4.72;48.17;101578.88;5030094;28;21325;-77
2022/03/05 01:44:03;;;;;;;;;;;;;;;4.80;47.81;101566.97;5029936;28;19971;-78
2022/03/05 01:46:37;;;;;;;;;;;;;;;4.96;47.45;101568.06;5030751;28;19937;-77
2022/03/05 01:49:03;;;;;;;;;;;;;;;4.75;48.14;101563.47;5030296;28;19925;-77
2022/03/05 01:51:28;;;;;;;;;;;;;;;4.80;47.54;101568.69;5046289;28;20444;-77
2022/03/05 01:53:54;;;;;;;;;;;;;;;4.74;47.50;101572.03;5023733;28;19926;-78
2022/03/05 01:56:19;;;;;;;;;;;;;;;4.73;47.53;101575.44;5030413;28;19925;-78
2022/03/05 01:58:45;;;;;;;;;;;;;;;4.63;47.86;101573.56;5024466;28;19917;-79
2022/03/05 02:01:11;;;;;;;;;;;;;;;4.78;48.15;101580.66;5035290;28;20345;-79
2022/03/05 02:03:37;;;;;;;;;;;;;;;4.62;47.69;101582.13;5028437;28;19929;-79
2022/03/05 02:06:02;;;;;;;;;;;;;;;4.69;47.86;101581.38;5031525;28;19932;-79
2022/03/05 02:08:27;;;;;;;;;;;;;;;4.47;48.34;101570.72;5025448;28;20302;-79
2022/03/05 02:10:53;;;;;;;;;;;;;;;4.67;47.91;101571.91;5028545;28;20360;-79
2022/03/05 02:13:19;;;;;;;;;;;;;;;4.37;48.71;101571.41;5037248;28;19973;-78
2022/03/05 02:15:44;;;;;;;;;;;;;;;4.52;48.42;101574.25;5031365;28;20358;-77
2022/03/05 02:18:09;;;;;;;;;;;;;;;4.51;48.30;101567.34;5030046;28;20032;-77
2022/03/05 02:20:35;;;;;;;;;;;;;;;4.38;49.08;101566.28;5030029;28;19931;-77
2022/03/05 02:23:00;;;;;;;;;;;;;;;4.54;48.77;101564.84;5025819;28;19931;-77
2022/03/05 02:25:25;;;;;;;;;;;;;;;4.44;48.21;101561.25;5030508;28;20043;-77
2022/03/05 02:27:51;;;;;;;;;;;;;;;4.51;48.40;101567.34;5030073;28;19921;-77
2022/03/05 02:30:16;;;;;;;;;;;;;;;4.66;47.99;101562.47;5027372;28;19923;-77
2022/03/05 02:32:41;;;;;;;;;;;;;;;4.37;48.56;101554.28;5034882;28;19982;-78
2022/03/05 02:35:07;;;;;;;;;;;;;;;4.20;48.89;101563.38;5026380;28;19964;-78
2022/03/05 02:37:32;;;;;;;;;;;;;;;4.50;48.57;101563.91;5036185;28;19947;-78
2022/03/05 02:39:57;;;;;;;;;;;;;;;4.52;48.17;101556.22;5028443;28;19928;-78
2022/03/05 02:42:23;;;;;;;;;;;;;;;4.56;48.65;101555.41;5034212;28;19925;-78
2022/03/05 02:44:48;;;;;;;;;;;;;;;4.51;48.81;101557.94;5023257;28;20359;-78
2022/03/05 02:47:14;;;;;;;;;;;;;;;4.52;48.50;101561.38;5027879;28;19922;-78
2022/03/05 02:49:39;;;;;;;;;;;;;;;4.47;48.38;101561.28;5029949;28;19932;-78
2022/03/05 02:52:05;;;;;;;;;;;;;;;4.45;48.78;101565.56;5029934;28;20084;-78
2022/03/05 02:54:30;;;;;;;;;;;;;;;4.21;48.92;101563.44;5024166;28;20463;-78
2022/03/05 02:56:55;;;;;;;;;;;;;;;4.31;48.97;101567.91;5046297;28;19948;-79
2022/03/05 02:59:21;;;;;;;;;;;;;;;4.39;48.58;101562.00;5027146;28;19947;-79
2022/03/05 03:01:46;;;;;;;;;;;;;;;4.17;48.67;101566.78;5029762;28;19932;-79
2022/03/05 03:04:11;;;;;;;;;;;;;;;4.07;49.54;101567.47;5022354;28;19925;-80
2022/03/05 03:06:37;;;;;;;;;;;;;;;4.32;48.58;101571.31;5024764;28;19952;-79
2022/03/05 03:09:02;;;;;;;;;;;;;;;4.29;49.04;101561.84;5027993;28;19924;-79
2022/03/05 03:11:27;;;;;;;;;;;;;;;4.43;48.69;101563.81;5024942;28;19933;-79
2022/03/05 03:13:53;;;;;;;;;;;;;;;4.32;48.51;101563.59;5027963;28;19929;-79
2022/03/05 03:16:18;;;;;;;;;;;;;;;4.40;48.62;101556.91;5024982;28;19929;-79
2022/03/05 03:18:43;;;;;;;;;;;;;;;4.35;48.50;101554.22;5022991;28;19928;-79
2022/03/05 03:21:09;;;;;;;;;;;;;;;4.47;48.49;101560.41;5027484;28;19958;-79
2022/03/05 03:23:34;;;;;;;;;;;;;;;4.30;48.86;101562.72;5025090;28;20329;-79
2022/03/05 03:25:59;;;;;;;;;;;;;;;4.26;49.17;101556.66;5027388;28;19936;-79
2022/03/05 03:28:25;;;;;;;;;;;;;;;4.08;48.91;101566.59;5023285;28;19921;-79
2022/03/05 03:30:50;;;;;;;;;;;;;;;4.30;48.71;101562.72;5027651;28;20298;-79
2022/03/05 03:33:15;;;;;;;;;;;;;;;4.15;49.19;101560.75;5028503;28;19928;-79
2022/03/05 03:35:41;;;;;;;;;;;;;;;4.11;49.57;101563.25;5030741;28;19921;-79
2022/03/05 03:38:06;;;;;;;;;;;;;;;4.04;49.52;101569.06;5026598;28;20342;-79
2022/03/05 03:40:31;;;;;;;;;;;;;;;4.03;49.73;101559.63;5026901;28;20024;-79
2022/03/05 03:42:56;;;;;;;;;;;;;;;4.08;48.97;101563.19;5028373;28;19931;-80
2022/03/05 03:45:22;;;;;;;;;;;;;;;4.11;49.66;101558.94;5030476;28;19927;-79
2022/03/05 03:47:49;;;;;;;;;;;;;;;3.92;49.26;101558.56;5046527;28;19921;-78
2022/03/05 03:50:16;;;;;;;;;;;;;;;3.91;49.99;101559.41;5033660;28;19929;-78
2022/03/05 03:52:42;;;;;;;;;;;;;;;4.19;49.38;101557.41;5028357;28;19955;-78
2022/03/05 03:55:08;;;;;;;;;;;;;;;3.99;49.04;101563.84;5010336;28;20582;-78
2022/03/05 03:57:34;;;;;;;;;;;;;;;4.15;48.79;101571.03;5013660;28;19917;-78
2022/03/05 03:59:59;;;;;;;;;;;;;;;4.01;49.82;101571.59;5008876;28;20306;-78
2022/03/05 04:02:24;;;;;;;;;;;;;;;3.92;49.33;101566.28;5012017;28;19966;-78
2022/03/05 04:04:50;;;;;;;;;;;;;;;4.00;49.72;101573.28;5007121;28;20313;-78
2022/03/05 04:09:59;;;;;;;;;;;;;;;4.22;49.15;101569.44;5006823;28;20065;-78
2022/03/05 04:12:24;;;;;;;;;;;;;;;4.18;48.99;101572.78;5010474;28;20088;-78
2022/03/05 04:14:49;;;;;;;;;;;;;;;4.15;49.20;101576.19;5009013;28;19978;-78
2022/03/05 04:17:15;;;;;;;;;;;;;;;3.96;49.52;101575.78;5001027;28;20390;-78
2022/03/05 04:19:41;;;;;;;;;;;;;;;3.97;49.04;101575.81;5009918;28;19932;-78
2022/03/05 04:22:06;;;;;;;;;;;;;;;4.15;49.20;101573.59;5011270;28;19956;-78
2022/03/05 04:24:32;;;;;;;;;;;;;;;4.14;48.90;101577.00;5006365;28;19929;-78
2022/03/05 04:26:57;;;;;;;;;;;;;;;4.16;49.08;101575.34;5017743;28;19932;-78
2022/03/05 04:29:22;;;;;;;;;;;;;;;4.20;49.03;101573.66;5021179;28;19922;-78
2022/03/05 04:31:48;;;;;;;;;;;;;;;4.13;48.63;101577.88;5010190;28;19929;-78
2022/03/05 04:34:15;;;;;;;;;;;;;;;4.03;48.89;101580.19;5002768;28;20370;-79
2022/03/05 04:36:40;;;;;;;;;;;;;;;3.95;49.05;101580.06;5021458;28;19945;-78
2022/03/05 04:39:06;;;;;;;;;;;;;;;4.03;49.33;101580.19;5027987;28;20444;-78
2022/03/05 04:41:31;;;;;;;;;;;;;;;4.17;48.45;101584.78;5026661;28;19920;-78
2022/03/05 04:43:56;;;;;;;;;;;;;;;4.19;48.73;101585.69;5026663;28;20004;-78
2022/03/05 04:46:22;;;;;;;;;;;;;;;4.06;49.16;101593.13;5026367;28;19925;-78
2022/03/05 04:48:47;;;;;;;;;;;;;;;3.86;49.39;101586.72;5023821;28;20015;-78
2022/03/05 04:51:12;;;;;;;;;;;;;;;4.04;49.37;101584.50;5027813;28;20373;-78
2022/03/05 04:53:38;;;;;;;;;;;;;;;3.98;49.05;101587.81;5027204;28;20357;-78
2022/03/05 04:56:03;;;;;;;;;;;;;;;3.74;49.15;101595.06;5029364;28;19920;-78
2022/03/05 04:58:28;;;;;;;;;;;;;;;3.95;49.71;101594.59;5030593;28;20359;-78
2022/03/05 05:00:54;;;;;;;;;;;;;;;4.07;49.16;101600.03;5027986;28;19925;-78
2022/03/05 05:03:19;;;;;;;;;;;;;;;3.93;49.05;101601.44;5025851;28;20437;-78
2022/03/05 05:05:44;;;;;;;;;;;;;;;3.98;49.19;101595.53;5024029;28;19929;-77
2022/03/05 05:08:10;;;;;;;;;;;;;;;4.04;49.63;101600.78;5022898;28;20352;-77
2022/03/05 05:10:35;;;;;;;;;;;;;;;3.95;49.53;101608.34;5024229;28;19932;-77
2022/03/05 05:13:01;;;;;;;;;;;;;;;4.18;49.02;101611.34;5043681;28;19921;-77
2022/03/05 05:15:26;;;;;;;;;;;;;;;4.15;49.10;101612.19;5022376;28;19929;-79
2022/03/05 05:17:51;;;;;;;;;;;;;;;4.04;49.25;101610.22;5025154;28;19955;-79
2022/03/05 05:20:17;;;;;;;;;;;;;;;4.18;48.74;101622.50;5019188;28;19917;-79
2022/03/05 05:22:42;;;;;;;;;;;;;;;4.12;48.79;101619.84;5024506;28;20393;-79
2022/03/05 05:25:08;;;;;;;;;;;;;;;4.07;49.16;101616.31;5024388;28;20386;-79
2022/03/05 05:27:37;;;;;;;;;;;;;;;3.86;49.42;101621.00;5023132;28;19921;-80
2022/03/05 05:30:02;;;;;;;;;;;;;;;3.92;49.39;101604.84;5024026;28;19936;-80
2022/03/05 05:32:28;;;;;;;;;;;;;;;3.95;49.45;101610.91;5022875;28;20524;-79
2022/03/05 05:34:53;;;;;;;;;;;;;;;3.82;49.02;101608.91;5028540;28;20373;-79
2022/03/05 05:37:18;;;;;;;;;;;;;;;3.93;49.48;101614.28;5024293;28;19929;-80
2022/03/05 05:39:44;;;;;;;;;;;;;;;4.01;48.25;101608.44;5023201;28;19920;-79
2022/03/05 05:42:09;;;;;;;;;;;;;;;3.90;48.78;101612.50;5025900;28;19925;-79
2022/03/05 05:44:35;;;;;;;;;;;;;;;3.83;49.21;101613.22;5030220;28;19998;-79
2022/03/05 05:47:01;;;;;;;;;;;;;;;3.76;49.16;101614.81;5024261;28;19964;-79
2022/03/05 05:49:26;;;;;;;;;;;;;;;3.80;49.59;101616.63;5041155;28;20003;-79
2022/03/05 05:51:51;;;;;;;;;;;;;;;3.81;49.22;101620.06;5028406;28;19929;-79
2022/03/05 05:54:17;;;;;;;;;;;;;;;3.90;49.38;101617.63;5030723;28;19944;-79
2022/03/05 05:56:42;;;;;;;;;;;;;;;3.89;48.97;101620.19;5030267;28;20479;-79
2022/03/05 05:59:07;;;;;;;;;;;;;;;3.58;49.80;101618.69;5029610;28;19925;-79
2022/03/05 06:01:33;;;;;;;;;;;;;;;3.90;49.58;101627.06;5028696;28;19917;-78
2022/03/05 06:03:59;;;;;;;;;;;;;;;3.92;49.45;101631.41;5027352;28;19929;-78
2022/03/05 06:06:24;;;;;;;;;;;;;;;3.93;48.59;101622.00;5025917;28;19932;-78
2022/03/05 06:08:50;;;;;;;;;;;;;;;3.93;49.04;101624.56;5025704;28;20369;-78
2022/03/05 06:11:16;;;;;;;;;;;;;;;3.60;49.67;101625.63;5020767;28;20389;-78
2022/03/05 06:13:41;;;;;;;;;;;;;;;3.82;49.10;101629.47;5028042;28;19920;-78
2022/03/05 06:16:07;;;;;;;;;;;;;;;3.62;49.45;101625.63;5022954;28;19925;-79
2022/03/05 06:18:33;;;;;;;;;;;;;;;3.41;50.69;101631.19;5032283;28;19917;-77
2022/03/05 06:20:58;;;;;;;;;;;;;;;3.57;49.63;101628.13;5026520;28;19957;-79
2022/03/05 06:23:23;;;;;;;;;;;;;;;3.51;49.90;101633.13;5030280;28;19917;-79
2022/03/05 06:25:49;;;;;;;;;;;;;;;3.49;49.91;101639.91;5026296;28;19921;-79
2022/03/05 06:28:14;;;;;;;;;;;;;;;3.62;49.71;101629.09;5039771;28;19918;-79
2022/03/05 06:30:40;;;;;;;;;;;;;;;3.81;49.50;101630.34;5032827;28;19927;-77
2022/03/05 06:33:05;;;;;;;;;;;;;;;3.69;49.56;101625.78;5030707;28;20016;-77
2022/03/05 06:35:30;;;;;;;;;;;;;;;3.69;49.63;101632.66;5029898;28;19933;-77
2022/03/05 06:37:56;;;;;;;;;;;;;;;3.72;49.42;101630.16;5028765;28;19958;-77
2022/03/05 06:40:21;;;;;;;;;;;;;;;3.79;49.99;101639.69;5029809;28;19921;-77
2022/03/05 06:42:47;;;;;;;;;;;;;;;3.66;49.79;101638.56;5027315;28;20302;-78
2022/03/05 06:45:12;;;;;;;;;;;;;;;3.71;49.76;101641.25;5027818;28;20490;-78
2022/03/05 06:47:43;;;;;;;;;;;;;;;3.83;50.10;101635.50;5030408;28;19921;-78
2022/03/05 06:50:10;;;;;;;;;;;;;;;3.87;49.46;101639.88;5029571;28;19921;-80
2022/03/05 06:52:35;;;;;;;;;;;;;;;3.76;49.53;101637.94;5032164;28;19917;-80
2022/03/05 06:55:01;;;;;;;;;;;;;;;3.76;50.04;101643.06;5028515;28;19983;-80
2022/03/05 06:57:26;;;;;;;;;;;;;;;3.84;50.32;101634.66;5034473;28;19924;-80
2022/03/05 06:59:52;;;;;;;;;;;;;;;3.88;49.79;101634.75;5030683;28;20413;-80
2022/03/05 07:02:18;;;;;;;;;;;;;;;3.86;50.04;101632.97;5031322;28;19964;-79
2022/03/05 07:04:45;;;;;;;;;;;;;;;3.99;50.30;101640.13;5030393;28;20385;-78
2022/03/05 07:07:11;;;;;;;;;;;;;;;4.08;50.11;101638.59;5024596;28;19925;-79
2022/03/05 07:09:36;;;;;;;;;;;;;;;4.20;50.45;101640.53;5026518;28;19928;-80
2022/03/05 07:12:02;;;;;;;;;;;;;;;4.09;50.47;101660.03;5028223;28;19925;-79
2022/03/05 07:14:27;;;;;;;;;;;;;;;4.11;50.78;101648.09;5042673;28;20000;-79
2022/03/05 07:16:53;;;;;;;;;;;;;;;4.32;50.48;101648.47;5022129;28;19925;-79
2022/03/05 07:19:18;;;;;;;;;;;;;;;4.31;50.18;101646.75;5027033;28;19916;-79
2022/03/05 07:21:43;;;;;;;;;;;;;;;4.11;50.81;101648.09;5014579;28;19921;-78
2022/03/05 07:24:09;;;;;;;;;;;;;;;4.26;50.50;101644.09;5039911;28;19925;-79
2022/03/05 07:26:35;;;;;;;;;;;;;;;4.45;50.25;101641.84;5011057;28;19971;-79
2022/03/05 07:29:00;;;;;;;;;;;;;;;4.43;50.41;101646.13;5004372;28;19924;-80
2022/03/05 07:31:26;;;;;;;;;;;;;;;4.57;49.84;101642.06;5001020;28;19937;-80
2022/03/05 07:33:51;;;;;;;;;;;;;;;4.52;50.39;101644.59;4991307;28;20402;-79
2022/03/05 07:36:17;;;;;;;;;;;;;;;4.50;50.10;101645.38;4991965;28;19974;-80
2022/03/05 07:38:44;;;;;;;;;;;;;;;4.67;50.17;101646.56;5011019;28;20020;-80
2022/03/05 07:41:13;;;;;;;;;;;;;;;4.49;50.08;101639.38;5009122;28;19922;-80
2022/03/05 07:43:39;;;;;;;;;;;;;;;4.58;50.17;101642.13;5007165;28;20008;-80
2022/03/05 07:46:04;;;;;;;;;;;;;;;4.49;50.36;101644.53;5012582;28;20016;-80
2022/03/05 07:48:30;;;;;;;;;;;;;;;4.50;50.70;101645.38;5012321;28;19962;-80
2022/03/05 07:50:58;;;;;;;;;;;;;;;4.58;50.41;101651.53;5020748;28;19932;-78
2022/03/05 07:53:24;;;;;;;;;;;;;;;4.71;49.84;101659.47;5015406;28;20009;-78
2022/03/05 07:55:49;;;;;;;;;;;;;;;4.68;50.17;101662.00;5012174;28;19917;-78
2022/03/05 07:58:15;;;;;;;;;;;;;;;4.85;49.59;101667.44;5006897;28;20012;-78
2022/03/05 08:00:40;;;;;;;;;;;;;;;4.69;50.67;101661.16;5006281;28;19929;-78
2022/03/05 08:03:05;;;;;;;;;;;;;;;4.87;49.61;101664.06;5010842;28;19929;-78
2022/03/05 08:05:31;;;;;;;;;;;;;;;4.65;50.12;101667.09;5009493;28;19926;-78
2022/03/05 08:07:56;;;;;;;;;;;;;;;4.64;50.28;101661.94;5011266;28;19950;-78
2022/03/05 08:10:21;;;;;;;;;;;;;;;4.91;48.89;101662.41;5003248;28;19930;-78
2022/03/05 08:12:47;;;;;;;;;;;;;;;4.93;48.77;101662.41;5010326;28;19925;-78
2022/03/05 08:15:12;;;;;;;;;;;;;;;5.00;49.21;101666.84;5009626;28;19929;-78
2022/03/05 08:17:55;;;;;;;;;;;;;;;4.81;49.47;101675.94;5009387;28;19948;-78
2022/03/05 08:20:21;;;;;;;;;;;;;;;4.63;49.77;101670.50;5009845;28;20416;-78
2022/03/05 08:22:46;;;;;;;;;;;;;;;4.90;50.15;101670.97;5017555;28;19946;-78
2022/03/05 08:25:12;;;;;;;;;;;;;;;4.99;49.07;101670.25;5021888;28;19921;-78
2022/03/05 08:27:37;;;;;;;;;;;;;;;5.21;48.79;101672.28;5003566;28;19921;-78
2022/03/05 08:30:03;;;;;;;;;;;;;;;5.09;49.06;101672.13;5011166;28;20353;-78
2022/03/05 08:32:29;;;;;;;;;;;;;;;5.15;49.38;101675.66;5024340;28;19932;-78
2022/03/05 08:34:54;;;;;;;;;;;;;;;5.20;48.52;101676.59;5010154;28;19922;-78
2022/03/05 08:37:19;;;;;;;;;;;;;;;5.45;47.51;101676.09;5010254;28;20315;-78
2022/03/05 08:39:44;;;;;;;;;;;;;;;5.15;48.99;101673.06;5011187;28;19921;-78
2022/03/05 08:42:10;;;;;;;;;;;;;;;5.33;48.72;101681.06;5027061;28;20055;-78
2022/03/05 08:44:35;;;;;;;;;;;;;;;5.30;48.36;101677.59;5009756;28;19929;-78
2022/03/05 08:47:00;;;;;;;;;;;;;;;5.09;48.36;101675.53;5007686;28;20374;-78
2022/03/05 08:49:26;;;;;;;;;;;;;;;5.66;47.19;101670.38;5007230;28;19937;-78
2022/03/05 08:51:51;;;;;;;;;;;;;;;5.48;46.89;101675.28;5008123;28;19976;-78
2022/03/05 08:54:20;;;;;;;;;;;;;;;6.01;51.71;101668.22;5005974;28;20391;-78
2022/03/05 08:56:45;;;;;;;;;;;;;;;5.48;47.79;101671.00;5014158;28;19921;-78
2022/03/05 08:59:10;;;;;;;;;;;;;;;5.57;46.81;101669.38;5006263;28;20396;-78
2022/03/05 09:01:35;;;;;;;;;;;;;;;5.69;46.46;101666.97;5009859;28;19922;-78
2022/03/05 09:04:01;;;;;;;;;;;;;;;5.64;46.62;101666.94;5003565;28;19958;-80
2022/03/05 09:06:26;;;;;;;;;;;;;;;5.73;46.95;101676.50;5007558;28;19925;-80
2022/03/05 09:08:52;;;;;;;;;;;;;;;5.93;46.66;101668.16;5005640;28;20051;-80
2022/03/05 09:11:18;;;;;;;;;;;;;;;5.83;46.87;101674.03;5009113;28;20018;-80
2022/03/05 09:13:43;;;;;;;;;;;;;;;5.59;46.62;101666.00;5009210;28;19971;-80
2022/03/05 09:16:08;;;;;;;;;;;;;;;5.86;46.75;101673.22;5008014;28;19917;-80
2022/03/05 09:18:33;;;;;;;;;;;;;;;5.68;47.26;101666.13;5005395;28;19921;-80
2022/03/05 09:20:59;;;;;;;;;;;;;;;5.43;48.04;101675.22;5010133;28;19929;-80
2022/03/05 09:23:24;;;;;;;;;;;;;;;5.78;47.35;101673.13;5012972;28;19925;-79
2022/03/05 09:25:50;;;;;;;;;;;;;;;5.47;47.74;101681.28;5009003;28;20020;-79
2022/03/05 09:28:15;;;;;;;;;;;;;;;5.75;47.50;101670.50;5008987;28;20302;-79
2022/03/05 09:30:40;;;;;;;;;;;;;;;5.68;46.41;101676.44;5006918;28;19979;-79
2022/03/05 09:33:07;;;;;;;;;;;;;;;5.55;46.77;101676.22;5021563;28;19930;-80
2022/03/05 09:35:32;;;;;;;;;;;;;;;5.79;46.89;101672.28;5004928;28;19933;-79
2022/03/05 09:37:58;;;;;;;;;;;;;;;5.62;46.26;101676.34;5006920;28;19948;-79
2022/03/05 09:40:23;;;;;;;;;;;;;;;6.20;45.57;101675.34;5007479;28;19914;-79
2022/03/05 09:42:49;;;;;;;;;;;;;;;5.80;46.96;101676.56;5017418;28;19922;-79
2022/03/05 09:45:14;;;;;;;;;;;;;;;6.12;46.29;101677.00;5005035;28;19929;-80
2022/03/05 09:47:42;;;;;;;;;;;;;;;5.96;45.61;101669.91;5003686;28;20306;-80
2022/03/05 09:50:08;;;;;;;;;;;;;;;5.92;45.22;101665.56;5008397;28;20020;-78
2022/03/05 09:52:34;;;;;;;;;;;;;;;5.92;46.97;101673.31;5021504;28;19930;-78
2022/03/05 09:55:00;;;;;;;;;;;;;;;6.04;46.38;101673.44;5010462;28;19921;-80
2022/03/05 09:57:25;;;;;;;;;;;;;;;6.13;45.08;101673.53;5013220;28;19921;-80
2022/03/05 09:59:50;;;;;;;;;;;;;;;6.54;45.58;101661.97;5012570;28;19925;-80
2022/03/05 10:02:17;;;;;;;;;;;;;;;6.35;45.54;101654.00;5012438;28;19921;-80
2022/03/05 10:04:42;;;;;;;;;;;;;;;5.99;44.38;101663.06;5014088;28;19926;-80
2022/03/05 10:07:07;;;;;;;;;;;;;;;6.24;44.74;101656.50;5005106;28;19932;-79
2022/03/05 10:09:33;;;;;;;;;;;;;;;6.64;43.93;101651.72;5004037;28;19931;-79
2022/03/05 10:11:58;;;;;;;;;;;;;;;6.61;43.33;101654.28;5011389;28;19925;-79
2022/03/05 10:14:24;;;;;;;;;;;;;;;6.51;46.02;101655.94;5008555;28;19926;-79
2022/03/05 10:16:59;;;;;;;;;;;;;;;6.62;43.57;101645.69;5012628;28;20575;-79
2022/03/05 10:19:24;;;;;;;;;;;;;;;6.56;44.52;101647.38;5010823;28;21595;-80
2022/03/05 10:22:00;;;;;;;;;;;;;;;6.50;43.73;101649.03;5016185;28;19925;-80
2022/03/05 10:24:33;;;;;;;;;;;;;;;6.26;44.19;101646.16;5006793;28;19929;-80
2022/03/05 10:26:58;;;;;;;;;;;;;;;6.43;45.01;101648.06;5003180;28;19921;-80
2022/03/05 10:29:27;;;;;;;;;;;;;;;6.44;44.87;101641.19;5009361;28;19929;-80
2022/03/05 10:31:56;;;;;;;;;;;;;;;6.44;44.27;101643.78;5014593;28;19928;-79
2022/03/05 10:34:22;;;;;;;;;;;;;;;6.69;44.70;101632.88;5008349;28;20361;-79
2022/03/05 10:36:57;;;;;;;;;;;;;;;6.58;44.36;101643.09;5025546;28;20036;-79
2022/03/05 10:39:26;;;;;;;;;;;;;;;6.62;43.78;101640.53;5008078;28;19921;-78
2022/03/05 10:41:54;;;;;;;;;;;;;;;7.12;46.46;101634.94;5007770;28;19925;-77
2022/03/05 10:44:20;;;;;;;;;;;;;;;6.77;42.64;101633.81;5013970;28;19921;-80
2022/03/05 10:46:47;;;;;;;;;;;;;;;6.76;42.69;101639.81;5008507;28;19923;-77
2022/03/05 10:49:20;;;;;;;;;;;;;;;6.86;43.62;101638.16;5012524;28;20399;-79
2022/03/05 10:51:50;;;;;;;;;;;;;;;7.38;45.20;101640.25;5007922;28;20401;-80
2022/03/05 10:54:39;;;;;;;;;;;;;;;7.12;40.86;101632.34;5008940;28;20423;-80
2022/03/05 10:57:13;;;;;;;;;;;;;;;6.98;40.68;101628.81;5007508;28;19922;-80
2022/03/05 10:59:40;;;;;;;;;;;;;;;7.10;40.21;101633.19;5012108;28;19918;-77
2022/03/05 11:02:07;;;;;;;;;;;;;;;7.17;40.55;101623.78;5014681;28;19929;-77
2022/03/05 11:04:35;;;;;;;;;;;;;;;7.14;39.18;101620.28;5011228;28;19921;-78
2022/03/05 11:07:00;;;;;;;;;;;;;;;7.35;40.01;101618.69;5008553;28;20052;-77
2022/03/05 11:09:27;;;;;;;;;;;;;;;7.30;39.18;101626.44;5007065;28;20008;-77
2022/03/05 11:11:52;;;;;;;;;;;;;;;7.34;39.25;101627.31;5011010;28;19929;-77
2022/03/05 11:14:17;;;;;;;;;;;;;;;7.20;39.60;101627.22;5020843;28;20117;-77
2022/03/05 11:16:43;;;;;;;;;;;;;;;7.13;39.94;101620.28;5010679;28;19925;-77
2022/03/05 11:19:09;;;;;;;;;;;;;;;7.24;39.53;101618.63;5012434;28;20586;-80
2022/03/05 11:21:34;;;;;;;;;;;;;;;7.07;39.04;101615.97;5005682;28;19961;-79
2022/03/05 11:23:59;;;;;;;;;;;;;;;7.22;39.31;101611.72;5004493;28;20401;-79
2022/03/05 11:26:27;;;;;;;;;;;;;;;7.40;39.72;101614.44;5022542;28;20337;-78
2022/03/05 11:28:53;;;;;;;;;;;;;;;7.28;38.90;101601.44;5009948;28;19918;-77
2022/03/05 11:31:30;;;;;;;;;;;;;;;6.96;39.35;101606.41;5008099;28;19932;-77
2022/03/05 11:33:55;;;;;;;;;;;;;;;7.28;41.60;101601.44;5008143;28;20378;-79
2022/03/05 11:36:31;;;;;;;;;;;;;;;7.27;39.62;101602.28;5000692;28;19929;-77
2022/03/05 11:39:16;;;;;;;;;;;;;;;7.26;40.30;101592.78;5004383;28;20059;-77
2022/03/05 11:41:57;;;;;;;;;;;;;;;7.40;39.10;101598.91;5011867;28;19933;-80
2022/03/05 11:44:23;;;;;;;;;;;;;;;7.37;40.04;101594.59;5007050;28;19928;-80
2022/03/05 11:46:49;;;;;;;;;;;;;;;7.24;40.26;101594.50;5007784;28;20560;-80
2022/03/05 11:49:15;;;;;;;;;;;;;;;7.34;39.28;101592.00;5011264;28;20637;-77
2022/03/05 11:52:01;;;;;;;;;;;;;;;7.32;39.55;101587.66;5010115;28;20207;-77
2022/03/05 11:54:26;;;;;;;;;;;;;;;7.36;38.11;101579.94;5008246;28;20008;-77
2022/03/05 11:57:08;;;;;;;;;;;;;;;7.49;38.90;101573.97;5011080;28;20040;-77
2022/03/05 11:59:41;;;;;;;;;;;;;;;7.63;37.83;101566.28;5019769;28;19965;-77
2022/03/05 12:02:07;;;;;;;;;;;;;;;7.72;36.71;101565.44;5010041;28;19926;-77
2022/03/05 12:04:33;;;;;;;;;;;;;;;7.47;37.74;101573.09;5010377;28;19925;-77
2022/03/05 12:07:22;;;;;;;;;;;;;;;7.54;36.78;101561.94;5005505;28;20366;-77
2022/03/05 12:09:56;;;;;;;;;;;;;;;7.73;37.63;101567.19;5011427;28;19925;-77
2022/03/05 12:12:22;;;;;;;;;;;;;;;7.85;34.59;101562.03;5007070;28;20032;-78
2022/03/05 12:14:59;;;;;;;;;;;;;;;7.88;35.13;101557.72;5008071;28;20021;-78
2022/03/05 12:17:33;;;;;;;;;;;;;;;8.06;36.39;101562.94;5007431;28;20310;-78
2022/03/05 12:19:58;;;;;;;;;;;;;;;7.77;33.47;101559.41;5006170;28;19944;-79
2022/03/05 12:22:24;;;;;;;;;;;;;;;7.75;34.54;101553.38;5008171;28;21271;-79
2022/03/05 12:24:49;;;;;;;;;;;;;;;7.75;34.26;101558.56;5017823;28;19921;-79
2022/03/05 12:27:15;;;;;;;;;;;;;;;7.75;35.27;101549.94;5006825;28;19957;-77
2022/03/05 12:29:47;;;;;;;;;;;;;;;7.95;34.84;101549.13;5013071;28;19933;-77
2022/03/05 12:32:16;;;;;;;;;;;;;;;7.77;35.11;101545.63;5022804;28;19935;-77
2022/03/05 12:34:41;;;;;;;;;;;;;;;7.78;33.10;101547.34;5017527;28;19921;-77
2022/03/05 12:37:08;;;;;;;;;;;;;;;7.83;32.85;101546.50;5015401;28;19921;-77
2022/03/05 12:39:34;;;;;;;;;;;;;;;7.90;33.64;101537.03;5013204;28;20009;-77
2022/03/05 12:41:59;;;;;;;;;;;;;;;7.76;33.95;101533.56;5012972;28;20429;-77
2022/03/05 12:44:24;;;;;;;;;;;;;;;7.83;37.08;101537.88;5015741;28;20339;-77
2022/03/05 12:46:50;;;;;;;;;;;;;;;8.14;33.86;101534.50;5008721;28;20208;-77